»·PEaware :: N192MC KSNA-KSBD

N192MC :: KSNA-KSBD

FLIGHT INFORMATION

Flight Status: Arrived
Operator: Privately registered:
United States
More flights under this callsign
Pilot: George S. (19936)
Aircraft: CESSNA 172 SKYHAWK
(C172)
More flights by this aircraft type
Origin: KSNA John Wayne-Orange Co
United States
Destination: KSBD San Bernardino Intl
United States
More flights between these airports :: More routes between these airports
Route: SLI V8 PDZ
File this flight plan on PilotEdge
Remarks: I-04-TEST
Altitude:
(Current/Filed)
5,000ft
Speed:
(Current/Filed)
115kts
Departed: 09-Aug-18 03:41 PM
Arrived: 09-Aug-18 04:15 PM
Distance/Time
Traveled:
41nm/0:34
Distance/Time
To Go:
Arrived

Flight Plot

Page will automatically refresh every two minutes.


Map Options




Map Legend


Flown Route
Filed Route
Departure Airport
Arrival Airport
Navaid (VOR, NDB)
Fix

Horizontal Profiles

Position Reports

Time Latitude Longitude Heading Altitude Ground
Speed
09-Aug-18 15:29 33.667613 -117.871229 41 60ft 0kts
09-Aug-18 15:30 33.667613 -117.871229 41 60ft 0kts
09-Aug-18 15:31 33.667613 -117.871229 41 60ft 0kts
09-Aug-18 15:32 33.667613 -117.871229 41 60ft 0kts
09-Aug-18 15:33 33.667613 -117.871229 41 60ft 0kts
09-Aug-18 15:34 33.667613 -117.871229 41 60ft 0kts
09-Aug-18 15:35 33.667743 -117.871298 315 60ft 3kts
09-Aug-18 15:36 33.669316 -117.870715 44 60ft 9kts
09-Aug-18 15:37 33.671926 -117.868231 28 60ft 13kts
09-Aug-18 15:38 33.674829 -117.866625 26 60ft 9kts
09-Aug-18 15:39 33.677596 -117.864865 28 60ft 12kts
09-Aug-18 15:40 33.679910 -117.863591 315 60ft 0kts
09-Aug-18 15:41 33.679910 -117.863591 315 60ft 0kts
09-Aug-18 15:42 33.674493 -117.867811 211 178ft 66kts
09-Aug-18 15:43 33.662551 -117.884847 229 992ft 65kts
09-Aug-18 15:44 33.650678 -117.904317 230 1667ft 84kts
09-Aug-18 15:45 33.636296 -117.927936 236 2300ft 89kts
09-Aug-18 15:46 33.649596 -117.944419 0 2922ft 84kts
09-Aug-18 15:47 33.672284 -117.940798 11 3533ft 83kts
09-Aug-18 15:48 33.695215 -117.936472 11 4096ft 86kts
09-Aug-18 15:49 33.719087 -117.931878 11 4596ft 87kts
09-Aug-18 15:50 33.743209 -117.927226 11 4998ft 95kts
09-Aug-18 15:51 33.772873 -117.921346 11 5000ft 113kts
09-Aug-18 15:52 33.804043 -117.915263 11 5000ft 113kts
09-Aug-18 15:53 33.824367 -117.892097 70 4999ft 110kts
09-Aug-18 15:54 33.834246 -117.857099 72 4999ft 110kts
09-Aug-18 15:55 33.843553 -117.821992 72 4999ft 109kts
09-Aug-18 15:56 33.852630 -117.787056 72 4999ft 109kts
09-Aug-18 15:57 33.861177 -117.751973 73 4992ft 110kts
09-Aug-18 15:58 33.870180 -117.716955 72 4990ft 109kts
09-Aug-18 15:59 33.879232 -117.681934 72 4990ft 109kts
09-Aug-18 16:00 33.888251 -117.647022 72 4990ft 109kts
09-Aug-18 16:01 33.897261 -117.612104 72 4990ft 109kts
09-Aug-18 16:02 33.906271 -117.577142 72 4990ft 109kts
09-Aug-18 16:03 33.915267 -117.542232 73 4990ft 109kts
09-Aug-18 16:04 33.939364 -117.515457 25 4485ft 121kts
09-Aug-18 16:05 33.968156 -117.502283 21 4005ft 104kts
09-Aug-18 16:06 33.993079 -117.492091 20 3990ft 94kts
09-Aug-18 16:07 34.018192 -117.481754 28 3988ft 95kts
09-Aug-18 16:08 34.030317 -117.453608 70 3494ft 94kts
09-Aug-18 16:09 34.039112 -117.424225 70 3289ft 89kts
09-Aug-18 16:10 34.047340 -117.396696 70 3290ft 85kts
09-Aug-18 16:11 34.055612 -117.368837 71 3105ft 92kts
09-Aug-18 16:12 34.063903 -117.340675 71 2651ft 89kts
09-Aug-18 16:13 34.072282 -117.312408 71 2182ft 87kts
09-Aug-18 16:14 34.080323 -117.285403 71 1721ft 78kts
09-Aug-18 16:15 34.087007 -117.263536 69 1394ft 61kts
09-Aug-18 16:16 34.091864 -117.246317 75 1090ft 26kts
09-Aug-18 16:17 34.094568 -117.242063 357 1099ft 2kts
09-Aug-18 16:18 34.095595 -117.240035 71 1104ft 16kts
09-Aug-18 16:19 34.097477 -117.233793 70 1122ft 17kts
09-Aug-18 16:20 34.099431 -117.227182 59 1138ft 27kts
09-Aug-18 16:21 34.101546 -117.224877 78 1146ft 0kts

Navigation Log

Ident Type
Flight plan parsing failed, navigation log unavailable